createdAt,value
2019-06-26T00:00:42.567Z,68.60
2019-06-26T00:01:42.553Z,68.20
2019-06-26T00:02:42.543Z,69.20
2019-06-26T00:03:42.531Z,68.80
2019-06-26T00:04:42.556Z,68.80
2019-06-26T00:05:42.513Z,68.80
2019-06-26T00:06:42.508Z,69.13
2019-06-26T00:07:42.487Z,68.90
2019-06-26T00:08:42.479Z,69.03
2019-06-26T00:09:42.507Z,68.30
2019-06-26T00:10:42.469Z,68.99
2019-06-26T00:11:42.457Z,68.63
2019-06-26T00:12:42.435Z,69.13
2019-06-26T00:13:42.430Z,69.23
2019-06-26T00:14:42.424Z,69.29
2019-06-26T00:15:42.398Z,68.93
2019-06-26T00:16:42.386Z,69.72
2019-06-26T00:17:42.381Z,69.72
2019-06-26T00:18:42.472Z,69.62
2019-06-26T00:19:42.380Z,69.43
2019-06-26T00:20:42.363Z,69.62
2019-06-26T00:21:42.341Z,69.62
2019-06-26T00:22:42.316Z,69.92
2019-06-26T00:23:42.322Z,69.32
2019-06-26T00:24:42.294Z,69.72
2019-06-26T00:25:42.332Z,69.43
2019-06-26T00:26:42.267Z,69.13
2019-06-26T00:27:42.274Z,68.83
2019-06-26T00:28:42.273Z,68.63
2019-06-26T00:29:42.232Z,68.43
2019-06-26T00:30:42.250Z,68.43
2019-06-26T00:31:42.231Z,67.64
2019-06-26T00:32:42.206Z,67.24
2019-06-26T00:33:42.186Z,66.52
2019-06-26T00:34:42.177Z,66.71
2019-06-26T00:35:42.195Z,66.82
2019-06-26T00:36:42.175Z,66.61
2019-06-26T00:37:42.145Z,66.91
2019-06-26T00:38:42.148Z,65.92
2019-06-26T00:39:42.133Z,65.82
2019-06-26T00:40:42.137Z,65.62
2019-06-26T00:41:42.107Z,65.72
2019-06-26T00:42:42.085Z,65.95
2019-06-26T00:43:42.918Z,66.15
2019-06-26T00:44:42.080Z,65.92
2019-06-26T00:45:42.090Z,65.75
2019-06-26T00:46:42.051Z,66.05
2019-06-26T00:47:42.038Z,66.35
2019-06-26T00:48:42.031Z,66.75
2019-06-26T00:49:42.005Z,66.85
2019-06-26T00:50:41.994Z,66.75
2019-06-26T00:51:42.014Z,67.05
2019-06-26T00:52:41.969Z,66.94
2019-06-26T00:53:41.959Z,67.08
2019-06-26T00:54:41.956Z,67.24
2019-06-26T00:55:41.957Z,67.77
2019-06-26T00:56:41.944Z,68.07
2019-06-26T00:57:41.924Z,67.87
2019-06-26T00:58:41.921Z,67.97
2019-06-26T00:59:41.887Z,68.13
2019-06-26T01:00:41.895Z,67.74
2019-06-26T01:01:41.887Z,68.27
2019-06-26T01:02:41.868Z,68.27
2019-06-26T01:03:41.846Z,69.16
2019-06-26T01:04:41.840Z,68.27
2019-06-26T01:05:41.837Z,68.37
2019-06-26T01:06:41.853Z,68.20
2019-06-26T01:07:41.800Z,68.27
2019-06-26T01:08:41.789Z,69.20
2019-06-26T01:09:41.781Z,69.29
2019-06-26T01:10:41.765Z,69.09
2019-06-26T01:11:41.750Z,69.29
2019-06-26T01:12:41.767Z,68.99
2019-06-26T01:13:54.359Z,69.09
2019-06-26T01:14:42.717Z,69.79
2019-06-26T01:15:41.714Z,69.56
2019-06-26T01:16:41.694Z,69.79
2019-06-26T01:17:41.755Z,69.76
2019-06-26T01:18:41.697Z,70.29
2019-06-26T01:19:41.705Z,69.39
2019-06-26T01:20:41.646Z,69.59
2019-06-26T01:21:41.638Z,69.79
2019-06-26T01:22:41.704Z,69.39
2019-06-26T01:23:41.614Z,69.49
2019-06-26T01:24:41.600Z,69.49
2019-06-26T01:25:41.590Z,69.53
2019-06-26T01:26:41.597Z,69.99
2019-06-26T01:27:41.602Z,69.92
2019-06-26T01:28:41.557Z,69.92
2019-06-26T01:29:41.541Z,70.29
2019-06-26T01:30:41.534Z,70.62
2019-06-26T01:31:41.523Z,71.61
2019-06-26T01:32:41.527Z,71.31
2019-06-26T01:33:41.516Z,71.51
2019-06-26T01:34:41.502Z,71.31
2019-06-26T01:35:41.474Z,70.62
2019-06-26T01:36:41.466Z,70.62
2019-06-26T01:37:41.453Z,71.31
2019-06-26T01:38:41.463Z,71.22
2019-06-26T01:39:41.431Z,71.51
2019-06-26T01:40:41.427Z,71.71
2019-06-26T01:41:41.439Z,71.41
2019-06-26T01:42:41.394Z,71.81
2019-06-26T01:43:41.410Z,71.71
2019-06-26T01:44:41.372Z,71.91
2019-06-26T01:45:41.374Z,72.14
2019-06-26T01:46:41.362Z,72.20
2019-06-26T01:47:41.333Z,72.41
2019-06-26T01:48:41.351Z,72.11
2019-06-26T01:49:41.320Z,72.41
2019-06-26T01:50:41.311Z,71.94
2019-06-26T01:51:41.307Z,72.11
2019-06-26T01:52:41.293Z,71.75
2019-06-26T01:53:41.303Z,72.34
2019-06-26T01:54:41.276Z,72.74
2019-06-26T01:55:41.244Z,72.44
2019-06-26T01:56:41.295Z,72.14
2019-06-26T01:57:41.275Z,71.94
2019-06-26T01:58:41.206Z,71.55
2019-06-26T01:59:41.239Z,71.71
2019-06-26T02:00:41.202Z,71.41
2019-06-26T02:01:41.182Z,72.24
2019-06-26T02:02:41.164Z,71.64
2019-06-26T02:03:41.156Z,71.75
2019-06-26T02:04:41.158Z,72.44
2019-06-26T02:05:41.133Z,72.34
2019-06-26T02:06:41.109Z,73.07
2019-06-26T02:07:41.105Z,73.24
2019-06-26T02:08:41.237Z,73.47
2019-06-26T02:09:41.080Z,73.67
2019-06-26T02:10:41.105Z,73.17
2019-06-26T02:11:41.060Z,73.27
2019-06-26T02:12:41.050Z,73.57
2019-06-26T02:13:41.062Z,73.47
2019-06-26T02:14:41.052Z,73.57
2019-06-26T02:15:41.005Z,73.17
2019-06-26T02:16:40.993Z,73.07
2019-06-26T02:17:40.989Z,72.58
2019-06-26T02:18:40.983Z,72.97
2019-06-26T02:19:40.982Z,73.57
2019-06-26T02:20:40.965Z,73.37
2019-06-26T02:21:40.934Z,73.97
2019-06-26T02:22:40.932Z,73.77
2019-06-26T02:23:40.926Z,73.97
2019-06-26T02:24:40.935Z,73.67
2019-06-26T02:25:40.893Z,73.80
2019-06-26T02:26:40.875Z,73.80
2019-06-26T02:27:40.876Z,73.77
2019-06-26T02:28:40.851Z,74.16
2019-06-26T02:29:40.855Z,74.20
2019-06-26T02:30:40.851Z,74.40
2019-06-26T02:31:40.820Z,74.30
2019-06-26T02:32:40.856Z,74.07
2019-06-26T02:33:40.827Z,74.10
2019-06-26T02:34:40.786Z,73.70
2019-06-26T02:35:40.805Z,73.60
2019-06-26T02:36:40.764Z,74.20
2019-06-26T02:37:40.747Z,74.00
2019-06-26T02:38:40.739Z,74.50
2019-06-26T02:39:40.739Z,74.46
2019-06-26T02:40:40.714Z,74.40
2019-06-26T02:41:40.741Z,74.00
2019-06-26T02:42:40.690Z,74.00
2019-06-26T02:43:40.680Z,74.40
2019-06-26T02:44:52.953Z,74.30
2019-06-26T02:45:41.662Z,74.00
2019-06-26T02:46:40.668Z,74.40
2019-06-26T02:47:40.665Z,74.73
2019-06-26T02:48:40.632Z,74.73
2019-06-26T02:49:40.628Z,74.69
2019-06-26T02:50:40.598Z,74.30
2019-06-26T02:51:40.586Z,74.30
2019-06-26T02:52:40.611Z,74.60
2019-06-26T02:53:40.566Z,74.60
2019-06-26T02:54:40.547Z,74.60
2019-06-26T02:55:40.538Z,74.20
2019-06-26T02:56:40.525Z,74.50
2019-06-26T02:57:40.512Z,74.10
2019-06-26T02:58:40.554Z,74.20
2019-06-26T02:59:40.489Z,74.10
2019-06-26T03:00:40.481Z,74.30
2019-06-26T03:01:40.482Z,74.10
2019-06-26T03:02:40.472Z,74.60
2019-06-26T03:03:40.490Z,74.80
2019-06-26T03:04:40.440Z,74.80
2019-06-26T03:05:40.427Z,75.23
2019-06-26T03:06:40.408Z,75.23
2019-06-26T03:07:40.399Z,75.03
2019-06-26T03:08:40.391Z,75.63
2019-06-26T03:09:40.399Z,75.23
2019-06-26T03:10:40.373Z,75.73
2019-06-26T03:11:40.352Z,75.46
2019-06-26T03:12:40.374Z,75.37
2019-06-26T03:13:40.326Z,75.53
2019-06-26T03:14:40.368Z,75.43
2019-06-26T03:15:40.305Z,75.57
2019-06-26T03:16:40.297Z,75.87
2019-06-26T03:17:54.168Z,76.46
2019-06-26T03:18:41.267Z,76.46
2019-06-26T03:19:40.258Z,76.26
2019-06-26T03:20:40.272Z,76.17
2019-06-26T03:21:40.239Z,76.26
2019-06-26T03:22:40.228Z,76.06
2019-06-26T03:23:40.213Z,76.06
2019-06-26T03:24:40.204Z,76.26
2019-06-26T03:25:40.217Z,76.56
2019-06-26T03:26:40.177Z,75.67
2019-06-26T03:27:40.166Z,76.76
2019-06-26T03:28:40.163Z,76.36
2019-06-26T03:29:40.145Z,76.17
2019-06-26T03:30:40.133Z,76.17
2019-06-26T03:31:40.154Z,76.17
2019-06-26T03:32:40.129Z,76.66
2019-06-26T03:33:40.107Z,76.79
2019-06-26T03:34:40.116Z,77.29
2019-06-26T03:35:40.959Z,77.29
2019-06-26T03:36:40.080Z,77.36
2019-06-26T03:37:40.050Z,77.29
2019-06-26T03:38:40.048Z,77.59
2019-06-26T03:39:40.035Z,77.99
2019-06-26T03:40:40.009Z,77.99
2019-06-26T03:41:39.995Z,77.69
2019-06-26T03:42:40.010Z,77.80
2019-06-26T03:43:39.992Z,77.69
2019-06-26T03:44:39.988Z,77.80
2019-06-26T03:45:39.962Z,77.59
2019-06-26T03:46:39.945Z,77.50
2019-06-26T03:47:39.957Z,78.09
2019-06-26T03:48:39.919Z,77.59
2019-06-26T03:49:39.902Z,77.80
2019-06-26T03:50:39.896Z,78.09
2019-06-26T03:51:39.899Z,78.29
2019-06-26T03:52:39.900Z,77.69
2019-06-26T03:53:39.854Z,78.19
2019-06-26T03:54:39.855Z,77.99
2019-06-26T03:55:39.830Z,78.59
2019-06-26T03:56:39.834Z,78.59
2019-06-26T03:57:39.813Z,78.85
2019-06-26T03:58:39.818Z,78.35
2019-06-26T03:59:39.798Z,78.35
2019-06-26T04:00:39.895Z,78.25
2019-06-26T04:01:39.783Z,77.86
2019-06-26T04:02:39.799Z,77.56
2019-06-26T04:03:39.772Z,77.56
2019-06-26T04:04:39.750Z,77.16
2019-06-26T04:05:39.727Z,77.76
2019-06-26T04:06:39.701Z,77.22
2019-06-26T04:07:39.696Z,77.82
2019-06-26T04:08:39.685Z,77.56
2019-06-26T04:09:39.692Z,78.06
2019-06-26T04:10:43.129Z,77.95
2019-06-26T04:11:39.671Z,78.65
2019-06-26T04:12:39.648Z,78.72
2019-06-26T04:13:39.627Z,78.75
2019-06-26T04:14:39.650Z,79.21
2019-06-26T04:15:42.560Z,79.11
2019-06-26T04:16:39.587Z,79.65
2019-06-26T04:17:39.571Z,79.25
2019-06-26T04:18:39.564Z,79.45
2019-06-26T04:19:39.553Z,79.31
2019-06-26T04:20:39.579Z,78.72
2019-06-26T04:21:39.525Z,79.01
2019-06-26T04:22:39.514Z,79.31
2019-06-26T04:23:39.510Z,78.72
2019-06-26T04:24:39.497Z,78.52
2019-06-26T04:25:39.507Z,79.41
2019-06-26T04:26:39.475Z,79.31
2019-06-26T04:27:39.463Z,79.37
2019-06-26T04:28:39.468Z,78.81
2019-06-26T04:29:39.434Z,78.97
2019-06-26T04:30:39.445Z,79.41
2019-06-26T04:31:39.419Z,79.17
2019-06-26T04:32:39.408Z,79.27
2019-06-26T04:33:39.390Z,79.17
2019-06-26T04:34:39.378Z,79.37
2019-06-26T04:35:39.760Z,79.67
2019-06-26T04:36:39.386Z,79.08
2019-06-26T04:37:39.336Z,79.77
2019-06-26T04:38:39.330Z,79.97
2019-06-26T04:39:39.315Z,79.67
2019-06-26T04:40:39.302Z,79.77
2019-06-26T04:41:39.313Z,79.77
2019-06-26T04:42:39.325Z,79.97
2019-06-26T04:43:39.268Z,79.47
2019-06-26T04:44:39.266Z,79.47
2019-06-26T04:45:39.255Z,79.57
2019-06-26T04:46:39.257Z,79.77
2019-06-26T04:47:39.234Z,79.37
2019-06-26T04:48:39.224Z,79.47
2019-06-26T04:49:39.209Z,79.87
2019-06-26T04:50:39.196Z,79.87
2019-06-26T04:51:39.202Z,79.47
2019-06-26T04:52:39.201Z,79.67
2019-06-26T04:53:39.150Z,79.77
2019-06-26T04:54:39.145Z,79.57
2019-06-26T04:55:39.133Z,79.97
2019-06-26T04:56:39.137Z,79.73
2019-06-26T04:57:39.145Z,79.37
2019-06-26T04:58:39.093Z,79.24
2019-06-26T04:59:39.095Z,79.47
2019-06-26T05:00:39.111Z,79.53
2019-06-26T05:01:39.065Z,79.77
2019-06-26T05:02:39.081Z,79.17
2019-06-26T05:03:39.035Z,79.14
2019-06-26T05:04:39.032Z,79.24
2019-06-26T05:05:40.256Z,79.33
2019-06-26T05:06:39.017Z,79.24
2019-06-26T05:07:38.990Z,78.90
2019-06-26T05:08:39.011Z,78.30
2019-06-26T05:09:38.982Z,78.60
2019-06-26T05:10:38.998Z,78.30
2019-06-26T05:11:38.952Z,79.30
2019-06-26T05:12:38.936Z,79.39
2019-06-26T05:13:38.960Z,79.36
2019-06-26T05:14:38.923Z,79.60
2019-06-26T05:15:38.907Z,78.40
2019-06-26T05:16:38.881Z,78.27
2019-06-26T05:17:38.883Z,77.77
2019-06-26T05:18:38.879Z,78.06
2019-06-26T05:19:38.847Z,77.67
2019-06-26T05:20:38.840Z,77.91
2019-06-26T05:21:38.832Z,78.17
2019-06-26T05:22:38.850Z,78.27
2019-06-26T05:23:38.843Z,78.36
2019-06-26T05:24:38.787Z,77.87
2019-06-26T05:25:38.775Z,77.47
2019-06-26T05:26:38.761Z,78.17
2019-06-26T05:27:38.791Z,78.47
2019-06-26T05:28:38.768Z,77.77
2019-06-26T05:29:38.745Z,77.97
2019-06-26T05:30:38.718Z,77.17
2019-06-26T05:31:38.703Z,77.44
2019-06-26T05:32:38.690Z,77.67
2019-06-26T05:33:38.682Z,77.47
2019-06-26T05:34:38.696Z,77.33
2019-06-26T05:35:38.675Z,76.54
2019-06-26T05:36:38.673Z,75.84
2019-06-26T05:37:38.634Z,75.84
2019-06-26T05:38:38.631Z,75.84
2019-06-26T05:39:38.723Z,76.04
2019-06-26T05:40:38.606Z,76.61
2019-06-26T05:41:38.590Z,76.10
2019-06-26T05:42:38.578Z,75.31
2019-06-26T05:43:38.590Z,74.82
2019-06-26T05:44:38.595Z,75.12
2019-06-26T05:45:38.569Z,75.18
2019-06-26T05:46:38.527Z,75.01
2019-06-26T05:47:38.519Z,74.91
2019-06-26T05:48:38.514Z,74.48
2019-06-26T05:49:38.506Z,74.02
2019-06-26T05:50:38.485Z,73.89
2019-06-26T05:51:38.498Z,72.60
2019-06-26T05:52:42.274Z,72.30
2019-06-26T05:53:38.454Z,71.28
2019-06-26T05:54:38.440Z,71.24
2019-06-26T05:55:38.430Z,71.31
2019-06-26T05:56:38.454Z,69.42
2019-06-26T05:57:41.641Z,69.13
2019-06-26T05:58:38.396Z,68.93
2019-06-26T05:59:38.382Z,70.02
2019-06-26T06:00:38.390Z,69.82
2019-06-26T06:01:38.365Z,70.21
2019-06-26T06:02:38.457Z,69.32
2019-06-26T06:03:38.337Z,69.09
2019-06-26T06:04:38.323Z,68.60
2019-06-26T06:05:38.318Z,69.19
2019-06-26T06:06:41.942Z,69.29
2019-06-26T06:07:38.553Z,69.29
2019-06-26T06:08:38.309Z,69.79
2019-06-26T06:09:38.281Z,69.79
2019-06-26T06:10:38.299Z,69.39
2019-06-26T06:11:38.316Z,68.80
2019-06-26T06:12:38.237Z,68.07
2019-06-26T06:13:38.242Z,68.63
2019-06-26T06:14:38.224Z,68.24
2019-06-26T06:15:38.207Z,68.13
2019-06-26T06:16:47.326Z,68.13
2019-06-26T06:17:39.172Z,67.54
2019-06-26T06:18:38.195Z,68.93
2019-06-26T06:19:38.147Z,68.27
2019-06-26T06:20:38.142Z,68.43
2019-06-26T06:21:38.141Z,67.94
2019-06-26T06:22:38.129Z,68.13
2019-06-26T06:23:38.105Z,68.04
2019-06-26T06:24:38.117Z,67.91
2019-06-26T06:25:38.091Z,66.82
2019-06-26T06:26:38.078Z,66.06
2019-06-26T06:27:38.071Z,65.14
2019-06-26T06:28:38.055Z,63.90
2019-06-26T06:29:38.094Z,63.57
2019-06-26T06:30:38.029Z,62.26
2019-06-26T06:31:38.019Z,61.11
2019-06-26T06:32:38.005Z,59.58
2019-06-26T06:33:37.987Z,59.61
2019-06-26T06:34:38.012Z,58.70
2019-06-26T06:35:37.989Z,58.54
2019-06-26T06:36:37.968Z,56.06
2019-06-26T06:37:37.955Z,56.62
2019-06-26T06:38:37.932Z,54.70
2019-06-26T06:39:37.929Z,55.07
2019-06-26T06:40:38.029Z,55.58
2019-06-26T06:41:37.906Z,54.87
2019-06-26T06:42:37.895Z,53.50
2019-06-26T06:43:37.881Z,54.13
2019-06-26T06:44:37.878Z,53.39
2019-06-26T06:45:37.857Z,52.51
2019-06-26T06:46:37.873Z,52.32
2019-06-26T06:47:37.833Z,51.61
2019-06-26T06:48:37.836Z,51.78
2019-06-26T06:49:44.846Z,50.20
2019-06-26T06:50:37.876Z,50.68
2019-06-26T06:51:37.795Z,50.39
2019-06-26T06:52:37.813Z,50.26
2019-06-26T06:53:37.772Z,50.20
2019-06-26T06:54:37.766Z,50.59
2019-06-26T06:55:37.747Z,50.10
2019-06-26T06:56:37.740Z,49.78
2019-06-26T06:57:37.747Z,49.46
2019-06-26T06:58:37.731Z,48.39
2019-06-26T06:59:37.705Z,47.97
2019-06-26T07:00:37.699Z,47.56
2019-06-26T07:01:37.689Z,47.95
2019-06-26T07:02:37.673Z,47.56
2019-06-26T07:03:37.716Z,47.25
2019-06-26T07:04:37.647Z,47.20
2019-06-26T07:05:37.645Z,45.72
2019-06-26T07:06:37.629Z,45.01
2019-06-26T07:07:37.677Z,45.28
2019-06-26T07:08:37.605Z,45.48
2019-06-26T07:09:37.623Z,45.57
2019-06-26T07:10:37.596Z,44.00
2019-06-26T07:11:37.578Z,44.89
2019-06-26T07:12:37.567Z,44.78
2019-06-26T07:13:37.582Z,44.79
2019-06-26T07:14:37.568Z,45.18
2019-06-26T07:15:37.538Z,45.60
2019-06-26T07:16:37.522Z,46.01
2019-06-26T07:17:37.516Z,46.32
2019-06-26T07:18:37.499Z,46.44
2019-06-26T07:19:37.578Z,46.73
2019-06-26T07:20:37.481Z,48.00
2019-06-26T07:21:37.472Z,49.07
2019-06-26T07:22:37.468Z,48.24
2019-06-26T07:23:37.452Z,47.30
2019-06-26T07:24:37.449Z,46.08
2019-06-26T07:25:37.481Z,45.48
2019-06-26T07:26:37.418Z,44.92
2019-06-26T07:27:37.406Z,45.11
2019-06-26T07:28:37.405Z,44.51
2019-06-26T07:29:37.456Z,43.40
2019-06-26T07:30:37.375Z,43.54
2019-06-26T07:31:38.544Z,42.54
2019-06-26T07:32:37.353Z,41.72
2019-06-26T07:33:37.342Z,41.04
2019-06-26T07:34:37.333Z,41.52
2019-06-26T07:35:37.360Z,40.73
2019-06-26T07:36:37.337Z,40.63
2019-06-26T07:37:37.303Z,39.24
2019-06-26T07:38:37.290Z,39.92
2019-06-26T07:39:37.285Z,39.04
2019-06-26T07:40:37.275Z,40.61
2019-06-26T07:41:37.254Z,40.53
2019-06-26T07:42:37.313Z,40.25
2019-06-26T07:43:37.236Z,41.45
2019-06-26T07:44:37.228Z,41.66
2019-06-26T07:45:37.211Z,41.76
2019-06-26T07:46:37.202Z,41.64
2019-06-26T07:47:43.142Z,40.67
2019-06-26T07:48:38.181Z,41.37
2019-06-26T07:49:37.184Z,41.89
2019-06-26T07:50:37.167Z,42.17
2019-06-26T07:51:37.153Z,41.97
2019-06-26T07:52:37.149Z,42.05
2019-06-26T07:53:37.165Z,41.41
2019-06-26T07:54:37.127Z,41.78
2019-06-26T07:55:40.399Z,42.05
2019-06-26T07:56:37.102Z,40.53
2019-06-26T07:57:37.090Z,39.94
2019-06-26T07:58:37.113Z,39.53
2019-06-26T07:59:37.071Z,38.79
2019-06-26T08:00:37.069Z,38.21
2019-06-26T08:01:37.052Z,37.62
2019-06-26T08:02:37.046Z,37.52
2019-06-26T08:03:37.033Z,37.62
2019-06-26T08:04:37.098Z,39.32
2019-06-26T08:05:37.019Z,39.28
2019-06-26T08:06:37.012Z,40.81
2019-06-26T08:07:37.002Z,42.09
2019-06-26T08:08:36.987Z,41.72
2019-06-26T08:09:37.022Z,41.53
2019-06-26T08:10:36.966Z,41.00
2019-06-26T08:11:36.954Z,40.92
2019-06-26T08:12:36.944Z,42.26
2019-06-26T08:13:36.940Z,40.96
2019-06-26T08:14:36.927Z,39.28
2019-06-26T08:15:36.950Z,38.66
2019-06-26T08:16:36.909Z,39.37
2019-06-26T08:17:36.900Z,39.69
2019-06-26T08:18:36.900Z,40.00
2019-06-26T08:19:36.882Z,39.12
2019-06-26T08:20:54.988Z,40.00
2019-06-26T08:21:37.884Z,40.46
2019-06-26T08:22:36.871Z,39.24
2019-06-26T08:23:36.847Z,38.62
2019-06-26T08:24:36.828Z,36.96
2019-06-26T08:25:36.820Z,36.93
2019-06-26T08:26:36.831Z,35.77
2019-06-26T08:27:36.799Z,36.52
2019-06-26T08:28:36.789Z,36.67
2019-06-26T08:29:36.778Z,37.65
2019-06-26T08:30:36.774Z,36.59
2019-06-26T08:31:36.784Z,37.15
2019-06-26T08:32:36.750Z,35.86
2019-06-26T08:33:36.745Z,35.64
2019-06-26T08:34:36.737Z,34.75
2019-06-26T08:35:36.720Z,34.64
2019-06-26T08:36:36.719Z,34.74
2019-06-26T08:37:36.771Z,34.06
2019-06-26T08:38:36.694Z,34.64
2019-06-26T08:39:36.691Z,34.05
2019-06-26T08:40:36.676Z,34.64
2019-06-26T08:41:36.662Z,34.91
2019-06-26T08:42:36.675Z,34.70
2019-06-26T08:43:36.641Z,33.53
2019-06-26T08:44:36.636Z,33.44
2019-06-26T08:45:36.624Z,33.03
2019-06-26T08:46:36.619Z,32.54
2019-06-26T08:47:36.611Z,32.84
2019-06-26T08:48:40.254Z,32.17
2019-06-26T08:49:36.586Z,33.23
2019-06-26T08:50:36.575Z,32.15
2019-06-26T08:51:36.596Z,32.75
2019-06-26T08:52:36.560Z,32.15
2019-06-26T08:53:36.631Z,32.81
2019-06-26T08:54:36.548Z,31.74
2019-06-26T08:55:36.535Z,31.74
2019-06-26T08:56:36.528Z,32.81
2019-06-26T08:57:36.518Z,32.42
2019-06-26T08:58:36.510Z,32.52
2019-06-26T08:59:36.521Z,31.64
2019-06-26T09:00:36.577Z,31.37
2019-06-26T09:01:36.493Z,32.44
2019-06-26T09:02:36.466Z,31.56
2019-06-26T09:03:36.459Z,31.84
2019-06-26T09:04:36.475Z,31.72
2019-06-26T09:05:47.681Z,31.54
2019-06-26T09:06:37.431Z,31.84
2019-06-26T09:07:36.430Z,31.43
2019-06-26T09:08:36.416Z,31.64
2019-06-26T09:09:36.429Z,31.66
2019-06-26T09:10:36.394Z,30.89
2019-06-26T09:11:36.399Z,31.07
2019-06-26T09:12:36.372Z,31.66
2019-06-26T09:13:36.366Z,31.66
2019-06-26T09:14:36.357Z,30.87
2019-06-26T09:15:36.382Z,31.88
2019-06-26T09:16:36.388Z,33.40
2019-06-26T09:17:36.329Z,34.64
2019-06-26T09:18:36.409Z,32.81
2019-06-26T09:19:36.313Z,33.08
2019-06-26T09:20:36.337Z,32.21
2019-06-26T09:21:36.297Z,32.79
2019-06-26T09:22:36.288Z,33.07
2019-06-26T09:23:36.284Z,31.69
2019-06-26T09:24:36.279Z,31.02
2019-06-26T09:25:36.267Z,31.77
2019-06-26T09:26:36.275Z,32.55
2019-06-26T09:27:36.238Z,30.81
2019-06-26T09:28:36.235Z,31.49
2019-06-26T09:29:36.245Z,31.67
2019-06-26T09:30:36.233Z,31.58
2019-06-26T09:31:36.255Z,31.75
2019-06-26T09:32:36.190Z,31.64
2019-06-26T09:33:36.185Z,31.64
2019-06-26T09:34:36.181Z,31.64
2019-06-26T09:35:36.172Z,30.96
2019-06-26T09:36:36.164Z,30.20
2019-06-26T09:37:36.214Z,29.24
2019-06-26T09:38:36.155Z,30.84
2019-06-26T09:39:36.153Z,29.98
2019-06-26T09:40:36.153Z,30.36
2019-06-26T09:41:36.131Z,30.36
2019-06-26T09:42:36.145Z,31.05
2019-06-26T09:43:36.119Z,31.61
2019-06-26T09:44:36.094Z,29.47
2019-06-26T09:45:36.082Z,29.47
2019-06-26T09:46:36.138Z,29.66
2019-06-26T09:47:36.062Z,30.72
2019-06-26T09:48:51.593Z,29.65
2019-06-26T09:49:37.069Z,29.19
2019-06-26T09:50:36.055Z,29.49
2019-06-26T09:51:36.026Z,31.76
2019-06-26T09:52:36.018Z,29.47
2019-06-26T09:53:46.576Z,29.27
2019-06-26T09:54:37.014Z,29.66
2019-06-26T09:55:36.000Z,29.58
2019-06-26T09:56:35.986Z,30.65
2019-06-26T09:57:35.989Z,29.50
2019-06-26T09:58:35.969Z,30.44
2019-06-26T09:59:35.976Z,29.19
2019-06-26T10:00:35.950Z,27.75
2019-06-26T10:01:35.957Z,29.68
2019-06-26T10:02:35.951Z,29.65
2019-06-26T10:03:35.941Z,28.97
2019-06-26T10:04:35.959Z,26.73
2019-06-26T10:05:35.928Z,28.11
2019-06-26T10:06:35.907Z,27.04
2019-06-26T10:07:35.902Z,28.76
2019-06-26T10:08:35.897Z,27.61
2019-06-26T10:09:35.914Z,29.43
2019-06-26T10:10:35.908Z,27.52
2019-06-26T10:11:36.133Z,27.42
2019-06-26T10:12:35.860Z,29.06
2019-06-26T10:13:35.848Z,27.73
2019-06-26T10:14:47.396Z,27.73
2019-06-26T10:15:36.833Z,27.72
2019-06-26T10:16:35.832Z,28.19
2019-06-26T10:17:35.811Z,27.34
2019-06-26T10:18:35.813Z,27.55
2019-06-26T10:19:35.837Z,26.89
2019-06-26T10:20:35.799Z,27.93
2019-06-26T10:21:35.784Z,27.80
2019-06-26T10:22:35.800Z,28.19
2019-06-26T10:23:35.798Z,27.23
2019-06-26T10:24:35.752Z,27.31
2019-06-26T10:25:35.811Z,28.35
2019-06-26T10:26:35.771Z,27.28
2019-06-26T10:27:35.738Z,26.73
2019-06-26T10:28:35.725Z,28.36
2019-06-26T10:29:35.731Z,27.03
2019-06-26T10:30:35.728Z,26.76
2019-06-26T10:31:35.701Z,27.94
2019-06-26T10:32:35.691Z,27.66
2019-06-26T10:33:35.699Z,27.55
2019-06-26T10:34:35.696Z,27.93
2019-06-26T10:35:35.744Z,27.83
2019-06-26T10:36:35.660Z,27.56
2019-06-26T10:37:35.651Z,27.95
2019-06-26T10:38:35.656Z,28.33
2019-06-26T10:39:35.654Z,28.41
2019-06-26T10:40:35.701Z,29.16
2019-06-26T10:41:35.632Z,28.11
2019-06-26T10:42:35.617Z,28.47
2019-06-26T10:43:35.606Z,27.79
2019-06-26T10:44:35.595Z,27.50
2019-06-26T10:45:36.344Z,28.25
2019-06-26T10:46:35.598Z,28.17
2019-06-26T10:47:39.427Z,27.90
2019-06-26T10:48:35.563Z,28.22
2019-06-26T10:49:35.552Z,27.64
2019-06-26T10:50:47.554Z,28.33
2019-06-26T10:51:36.565Z,27.73
2019-06-26T10:52:35.539Z,27.34
2019-06-26T10:53:35.543Z,28.17
2019-06-26T10:54:35.515Z,27.87
2019-06-26T10:55:35.507Z,26.72
2019-06-26T10:56:35.525Z,27.00
2019-06-26T10:57:35.502Z,25.95
2019-06-26T10:58:35.526Z,24.62
2019-06-26T10:59:35.480Z,26.44
2019-06-26T11:00:35.474Z,26.85
2019-06-26T11:01:35.567Z,28.59
2019-06-26T11:02:35.444Z,27.83
2019-06-26T11:03:35.443Z,28.37
2019-06-26T11:04:35.426Z,29.53
2019-06-26T11:05:35.420Z,30.47
2019-06-26T11:06:37.275Z,29.60
2019-06-26T11:07:36.606Z,28.13
2019-06-26T11:08:35.401Z,28.30
2019-06-26T11:09:35.388Z,26.74
2019-06-26T11:10:35.380Z,27.90
2019-06-26T11:11:35.406Z,27.84
2019-06-26T11:12:35.402Z,28.50
2019-06-26T11:13:35.354Z,29.55
2019-06-26T11:14:35.347Z,28.97
2019-06-26T11:15:35.332Z,28.88
2019-06-26T11:16:35.323Z,29.47
2019-06-26T11:17:35.345Z,28.13
2019-06-26T11:18:35.306Z,29.30
2019-06-26T11:19:43.808Z,29.38
2019-06-26T11:20:36.286Z,29.50
2019-06-26T11:21:35.280Z,30.99
2019-06-26T11:22:35.311Z,31.84
2019-06-26T11:23:35.260Z,30.65
2019-06-26T11:24:35.270Z,29.09
2019-06-26T11:25:35.247Z,28.63
2019-06-26T11:26:35.245Z,29.50
2019-06-26T11:27:35.234Z,29.50
2019-06-26T11:28:35.243Z,29.55
2019-06-26T11:29:35.214Z,30.62
2019-06-26T11:30:35.204Z,31.00
2019-06-26T11:31:35.205Z,30.62
2019-06-26T11:32:35.251Z,30.22
2019-06-26T11:33:35.295Z,30.40
2019-06-26T11:34:35.180Z,30.79
2019-06-26T11:35:35.173Z,30.99
2019-06-26T11:36:35.192Z,31.66
2019-06-26T11:37:35.176Z,30.97
2019-06-26T11:38:35.162Z,30.40
2019-06-26T11:39:35.169Z,30.29
2019-06-26T11:40:35.123Z,29.79
2019-06-26T11:41:35.113Z,30.76
2019-06-26T11:42:35.104Z,30.73
2019-06-26T11:43:35.114Z,29.19
2019-06-26T11:44:35.085Z,29.27
2019-06-26T11:45:35.099Z,29.08
2019-06-26T11:46:37.044Z,29.46
2019-06-26T11:47:35.065Z,28.59
2019-06-26T11:48:35.080Z,28.13
2019-06-26T11:49:35.044Z,29.49
2019-06-26T11:50:35.045Z,28.45
2019-06-26T11:51:35.032Z,29.60
2019-06-26T11:52:35.047Z,30.01
2019-06-26T11:53:35.629Z,28.86
2019-06-26T11:54:35.024Z,30.67
2019-06-26T11:55:34.997Z,29.30
2019-06-26T11:56:35.026Z,28.33
2019-06-26T11:57:34.979Z,28.98
2019-06-26T11:58:34.964Z,29.25
2019-06-26T11:59:34.979Z,28.57
2019-06-26T12:00:34.954Z,27.47
2019-06-26T12:01:34.962Z,28.16
2019-06-26T12:02:34.931Z,28.16
2019-06-26T12:03:34.928Z,29.42
2019-06-26T12:04:34.937Z,29.72
2019-06-26T12:05:34.934Z,30.71
2019-06-26T12:06:34.896Z,30.63
2019-06-26T12:07:34.897Z,31.13
2019-06-26T12:08:34.878Z,30.92
2019-06-26T12:09:34.913Z,31.02
2019-06-26T12:10:34.856Z,31.66
2019-06-26T12:11:34.846Z,30.68
2019-06-26T12:12:34.855Z,30.00
2019-06-26T12:13:34.848Z,29.80
2019-06-26T12:14:34.847Z,29.72
2019-06-26T12:15:34.850Z,29.80
2019-06-26T12:16:34.815Z,29.60
2019-06-26T12:17:34.816Z,28.99
2019-06-26T12:18:34.794Z,29.11
2019-06-26T12:19:34.779Z,28.61
2019-06-26T12:20:34.788Z,29.20
2019-06-26T12:21:34.758Z,31.69
2019-06-26T12:22:34.745Z,29.87
2019-06-26T12:23:34.751Z,30.38
2019-06-26T12:24:34.742Z,30.97
2019-06-26T12:25:34.758Z,30.38
2019-06-26T12:26:34.733Z,30.47
2019-06-26T12:27:34.753Z,30.55
2019-06-26T12:28:34.701Z,29.58
2019-06-26T12:29:34.691Z,30.35
2019-06-26T12:30:34.682Z,30.54
2019-06-26T12:31:34.693Z,29.20
2019-06-26T12:32:41.810Z,30.94
2019-06-26T12:33:35.742Z,30.87
2019-06-26T12:34:34.643Z,31.74
2019-06-26T12:35:34.635Z,30.51
2019-06-26T12:36:34.641Z,30.40
2019-06-26T12:37:37.888Z,30.41
2019-06-26T12:38:34.606Z,30.58
2019-06-26T12:39:34.606Z,31.46
2019-06-26T12:40:34.580Z,32.04
2019-06-26T12:41:34.627Z,31.95
2019-06-26T12:42:34.577Z,31.63
2019-06-26T12:43:34.564Z,30.58
2019-06-26T12:44:34.552Z,30.41
2019-06-26T12:45:34.544Z,30.81
2019-06-26T12:46:34.564Z,30.82
2019-06-26T12:47:34.523Z,31.51
2019-06-26T12:48:34.515Z,32.26
2019-06-26T12:49:34.508Z,31.96
2019-06-26T12:50:41.531Z,31.10
2019-06-26T12:51:34.486Z,32.26
2019-06-26T12:52:34.498Z,32.06